createdAt,value
2018-04-01T00:01:16.590Z,1.93
2018-04-01T00:03:42.840Z,2.77
2018-04-01T00:06:09.147Z,4.27
2018-04-01T00:08:35.367Z,3.40
2018-04-01T00:11:01.685Z,7.20
2018-04-01T00:13:27.917Z,4.10
2018-04-01T00:15:54.111Z,5.53
2018-04-01T00:18:20.310Z,3.90
2018-04-01T00:20:46.518Z,3.90
2018-04-01T00:23:12.742Z,2.30
2018-04-01T00:25:39.706Z,4.00
2018-04-01T00:28:06.818Z,4.80
2018-04-01T00:30:33.173Z,5.33
2018-04-01T00:32:59.355Z,3.80
2018-04-01T00:35:25.627Z,4.07
2018-04-01T00:37:51.850Z,6.10
2018-04-01T00:40:18.047Z,4.50
2018-04-01T00:42:44.369Z,4.57
2018-04-01T00:45:10.633Z,4.73
2018-04-01T00:47:36.896Z,3.90
2018-04-01T00:50:03.996Z,3.63
2018-04-01T00:52:30.205Z,3.50
2018-04-01T00:54:56.404Z,2.67
2018-04-01T00:57:22.643Z,3.50
2018-04-01T00:59:48.883Z,3.57
2018-04-01T01:02:15.113Z,3.10
2018-04-01T01:04:41.348Z,3.67
2018-04-01T01:07:07.542Z,8.37
2018-04-01T01:09:34.520Z,4.70
2018-04-01T01:12:00.760Z,3.30
2018-04-01T01:14:27.055Z,4.17
2018-04-01T01:16:53.279Z,3.70
2018-04-01T01:19:19.521Z,2.33
2018-04-01T01:21:45.803Z,5.80
2018-04-01T01:24:12.103Z,7.00
2018-04-01T01:26:45.387Z,4.30
2018-04-01T01:29:11.594Z,3.40
2018-04-01T01:31:38.603Z,5.80
2018-04-01T01:34:04.861Z,3.27
2018-04-01T01:36:31.878Z,2.50
2018-04-01T01:38:58.189Z,3.40
2018-04-01T01:41:24.639Z,2.67
2018-04-01T01:43:51.603Z,6.93
2018-04-01T01:46:18.562Z,3.50
2018-04-01T01:48:45.537Z,2.90
2018-04-01T01:51:11.991Z,6.80
2018-04-01T01:53:38.225Z,3.50
2018-04-01T01:56:04.643Z,3.43
2018-04-01T01:58:30.868Z,5.17
2018-04-01T02:00:57.085Z,3.37
2018-04-01T02:03:23.291Z,4.00
2018-04-01T02:05:50.266Z,5.50
2018-04-01T02:08:16.510Z,2.93
2018-04-01T02:10:42.756Z,3.37
2018-04-01T02:13:08.945Z,3.80
2018-04-01T02:15:35.161Z,4.77
2018-04-01T02:18:01.405Z,4.70
2018-04-01T02:20:27.635Z,4.40
2018-04-01T02:22:54.007Z,3.57
2018-04-01T02:25:21.005Z,3.90
2018-04-01T02:27:47.273Z,3.93
2018-04-01T02:30:13.492Z,1.93
2018-04-01T02:32:46.569Z,3.60
2018-04-01T02:35:12.797Z,6.30
2018-04-01T02:37:39.018Z,4.10
2018-04-01T02:40:05.255Z,3.13
2018-04-01T02:42:31.538Z,4.53
2018-04-01T02:44:57.811Z,3.17
2018-04-01T02:47:24.069Z,1.80
2018-04-01T02:49:50.298Z,4.57
2018-04-01T02:52:16.586Z,3.23
2018-04-01T02:54:42.902Z,3.40
2018-04-01T02:57:09.126Z,3.50
2018-04-01T02:59:35.335Z,2.20
2018-04-01T03:02:02.324Z,2.47
2018-04-01T03:04:28.539Z,2.50
2018-04-01T03:06:54.759Z,5.83
2018-04-01T03:09:21.010Z,4.93
2018-04-01T03:11:47.377Z,3.40
2018-04-01T03:14:14.362Z,2.13
2018-04-01T03:16:40.597Z,3.07
2018-04-01T03:19:06.983Z,3.00
2018-04-01T03:21:33.944Z,5.73
2018-04-01T03:24:00.969Z,3.40
2018-04-01T03:26:27.183Z,2.70
2018-04-01T03:28:53.403Z,2.70
2018-04-01T03:31:19.652Z,4.53
2018-04-01T03:33:45.863Z,3.17
2018-04-01T03:36:12.090Z,6.67
2018-04-01T03:38:38.392Z,3.80
2018-04-01T03:41:04.668Z,2.63
2018-04-01T03:43:31.657Z,4.53
2018-04-01T03:45:58.158Z,2.67
2018-04-01T03:48:25.132Z,3.53
2018-04-01T03:50:51.347Z,2.90
2018-04-01T03:53:18.473Z,3.10
2018-04-01T03:55:44.691Z,3.80
2018-04-01T03:58:10.906Z,4.87
2018-04-01T04:00:37.134Z,2.23
2018-04-01T04:03:03.368Z,3.10
2018-04-01T04:05:29.721Z,2.30
2018-04-01T04:07:56.062Z,4.03
2018-04-01T04:10:23.054Z,2.60
2018-04-01T04:12:49.328Z,4.70
2018-04-01T04:15:15.581Z,2.80
2018-04-01T04:17:42.533Z,2.60
2018-04-01T04:20:08.754Z,3.00
2018-04-01T04:22:35.848Z,2.63
2018-04-01T04:25:02.064Z,8.43
2018-04-01T04:27:28.310Z,5.47
2018-04-01T04:29:54.663Z,2.73
2018-04-01T04:32:20.887Z,2.43
2018-04-01T04:34:47.176Z,4.17
2018-04-01T04:37:13.427Z,4.57
2018-04-01T04:39:39.638Z,2.70
2018-04-01T04:42:05.894Z,2.80
2018-04-01T04:44:32.338Z,4.47
2018-04-01T04:46:58.558Z,3.40
2018-04-01T04:49:25.012Z,2.90
2018-04-01T04:51:52.149Z,3.57
2018-04-01T04:54:18.489Z,2.80
2018-04-01T04:56:45.517Z,4.50
2018-04-01T04:59:11.833Z,3.60
2018-04-01T05:01:38.073Z,4.30
2018-04-01T05:04:04.283Z,2.80
2018-04-01T05:06:30.616Z,5.90
2018-04-01T05:08:56.838Z,3.47
2018-04-01T05:11:23.201Z,4.93
2018-04-01T05:13:49.443Z,4.90
2018-04-01T05:16:15.672Z,3.70
2018-04-01T05:18:41.933Z,5.10
2018-04-01T05:21:08.227Z,4.30
2018-04-01T05:23:34.457Z,5.50
2018-04-01T05:26:00.643Z,7.20
2018-04-01T05:28:26.902Z,5.67
2018-04-01T05:30:53.179Z,6.10
2018-04-01T05:33:19.382Z,8.50
2018-04-01T05:35:45.624Z,3.90
2018-04-01T05:38:11.900Z,6.00
2018-04-01T05:40:38.229Z,8.13
2018-04-01T05:43:04.514Z,5.30
2018-04-01T05:45:30.768Z,5.10
2018-04-01T05:47:57.008Z,4.57
2018-04-01T05:50:23.284Z,7.03
2018-04-01T05:52:49.520Z,5.67
2018-04-01T05:55:16.540Z,5.73
2018-04-01T05:57:42.767Z,3.43
2018-04-01T06:00:08.989Z,6.23
2018-04-01T06:02:35.189Z,4.03
2018-04-01T06:05:01.454Z,6.70
2018-04-01T06:07:27.738Z,4.67
2018-04-01T06:09:53.942Z,5.70
2018-04-01T06:12:20.264Z,5.03
2018-04-01T06:14:46.774Z,4.80
2018-04-01T06:17:12.983Z,6.13
2018-04-01T06:19:39.272Z,5.93
2018-04-01T06:22:05.773Z,10.10
2018-04-01T06:24:32.818Z,7.47
2018-04-01T06:26:59.041Z,8.80
2018-04-01T06:29:26.751Z,7.77
2018-04-01T06:31:52.964Z,8.03
2018-04-01T06:34:19.950Z,9.37
2018-04-01T06:36:46.412Z,7.50
2018-04-01T06:39:13.380Z,9.63
2018-04-01T06:41:39.616Z,12.10
2018-04-01T06:44:06.562Z,7.07
2018-04-01T06:46:32.789Z,8.97
2018-04-01T06:48:59.763Z,8.17
2018-04-01T06:51:26.051Z,9.90
2018-04-01T06:53:52.446Z,8.17
2018-04-01T06:56:18.772Z,8.30
2018-04-01T06:58:44.990Z,9.93
2018-04-01T07:01:11.198Z,4.53
2018-04-01T07:03:38.303Z,5.10
2018-04-01T07:06:05.350Z,3.40
2018-04-01T07:08:32.376Z,2.63
2018-04-01T07:10:58.685Z,2.43
2018-04-01T07:13:25.004Z,4.10
2018-04-01T07:15:51.215Z,6.20
2018-04-01T07:18:17.719Z,2.87
2018-04-01T07:20:43.987Z,3.50
2018-04-01T07:23:10.228Z,4.23
2018-04-01T07:25:36.520Z,6.90
2018-04-01T07:28:03.255Z,5.50
2018-04-01T07:30:30.214Z,6.23
2018-04-01T07:32:57.186Z,9.13
2018-04-01T07:35:23.432Z,7.40
2018-04-01T07:37:49.664Z,14.17
2018-04-01T07:40:15.951Z,9.50
2018-04-01T07:42:42.201Z,10.60
2018-04-01T07:45:08.443Z,10.80
2018-04-01T07:47:34.670Z,10.43
2018-04-01T07:50:00.889Z,11.30
2018-04-01T07:52:27.096Z,10.03
2018-04-01T07:54:53.346Z,12.43
2018-04-01T07:57:19.562Z,10.83
2018-04-01T07:59:45.774Z,10.20
2018-04-01T08:02:12.899Z,10.20
2018-04-01T08:04:39.167Z,9.73
2018-04-01T08:07:05.404Z,12.90
2018-04-01T08:09:31.701Z,7.90
2018-04-01T08:11:57.962Z,10.40
2018-04-01T08:14:24.265Z,10.90
2018-04-01T08:16:51.294Z,11.33
2018-04-01T08:19:17.514Z,9.20
2018-04-01T08:21:43.767Z,10.57
2018-04-01T08:24:10.787Z,12.77
2018-04-01T08:26:37.032Z,8.70
2018-04-01T08:29:03.260Z,11.23
2018-04-01T08:31:29.514Z,9.60
2018-04-01T08:33:55.726Z,8.07
2018-04-01T08:36:22.860Z,9.73
2018-04-01T08:38:49.180Z,8.00
2018-04-01T08:41:15.393Z,12.20
2018-04-01T08:43:42.394Z,11.20
2018-04-01T08:46:08.801Z,11.47
2018-04-01T08:48:35.819Z,8.10
2018-04-01T08:51:02.038Z,8.20
2018-04-01T08:53:28.277Z,7.73
2018-04-01T08:55:54.522Z,8.23
2018-04-01T08:58:20.865Z,7.70
2018-04-01T09:00:47.109Z,13.67
2018-04-01T09:03:14.074Z,9.83
2018-04-01T09:05:40.464Z,6.87
2018-04-01T09:08:06.715Z,8.30
2018-04-01T09:10:33.680Z,8.57
2018-04-01T09:13:00.004Z,9.67
2018-04-01T09:15:26.327Z,9.50
2018-04-01T09:17:53.319Z,9.10
2018-04-01T09:20:19.643Z,9.03
2018-04-01T09:22:46.709Z,9.97
2018-04-01T09:25:13.094Z,8.57
2018-04-01T09:27:39.346Z,9.13
2018-04-01T09:30:05.716Z,7.60
2018-04-01T09:32:31.946Z,9.37
2018-04-01T09:34:58.222Z,11.40
2018-04-01T09:37:24.533Z,9.90
2018-04-01T09:39:50.939Z,9.70
2018-04-01T09:42:17.914Z,9.20
2018-04-01T09:44:44.312Z,8.60
2018-04-01T09:47:11.304Z,10.70
2018-04-01T09:49:37.533Z,9.77
2018-04-01T09:52:04.026Z,9.90
2018-04-01T09:54:31.153Z,9.60
2018-04-01T09:56:57.387Z,11.20
2018-04-01T09:59:23.770Z,9.17
2018-04-01T10:01:50.230Z,8.67
2018-04-01T10:04:16.671Z,12.00
2018-04-01T10:06:43.163Z,11.00
2018-04-01T10:09:09.698Z,9.67
2018-04-01T10:11:36.204Z,10.63
2018-04-01T10:14:03.418Z,10.63
2018-04-01T10:16:32.939Z,9.43
2018-04-01T10:19:00.134Z,11.53
2018-04-01T10:21:26.739Z,8.20
2018-04-01T10:23:54.005Z,9.20
2018-04-01T10:26:20.435Z,8.73
2018-04-01T10:28:46.854Z,11.10
2018-04-01T10:31:13.300Z,9.80
2018-04-01T10:33:39.710Z,12.60
2018-04-01T10:36:06.184Z,12.03
2018-04-01T10:38:32.618Z,11.73
2018-04-01T10:40:59.776Z,12.20
2018-04-01T10:43:26.261Z,7.80
2018-04-01T10:45:52.726Z,5.70
2018-04-01T10:48:19.908Z,9.63
2018-04-01T10:50:46.616Z,5.13
2018-04-01T10:53:13.253Z,4.47
2018-04-01T10:55:40.646Z,6.30
2018-04-01T10:58:07.814Z,5.30
2018-04-01T11:00:34.393Z,6.13
2018-04-01T11:03:00.776Z,4.67
2018-04-01T11:05:27.174Z,3.37
2018-04-01T11:07:53.798Z,3.53
2018-04-01T11:10:20.333Z,2.87
2018-04-01T11:12:46.786Z,3.73
2018-04-01T11:15:13.268Z,3.00
2018-04-01T11:17:39.675Z,3.67
2018-04-01T11:20:06.059Z,3.73
2018-04-01T11:22:32.701Z,4.00
2018-04-01T11:24:59.137Z,4.10
2018-04-01T11:27:25.512Z,4.70
2018-04-01T11:29:53.359Z,7.00
2018-04-01T11:32:19.969Z,5.30
2018-04-01T11:34:46.399Z,5.13
2018-04-01T11:37:12.798Z,4.40
2018-04-01T11:39:39.829Z,6.10
2018-04-01T11:42:06.068Z,5.70
2018-04-01T11:44:32.333Z,5.20
2018-04-01T11:46:58.563Z,4.97
2018-04-01T11:49:24.839Z,4.70
2018-04-01T11:51:51.607Z,5.00
2018-04-01T11:54:18.624Z,4.47
2018-04-01T11:56:44.948Z,4.30
2018-04-01T11:59:11.882Z,3.70
2018-04-01T12:01:38.129Z,4.43
2018-04-01T12:04:04.514Z,4.13
2018-04-01T12:06:31.496Z,4.93
2018-04-01T12:08:57.793Z,4.53
2018-04-01T12:11:24.124Z,5.70
2018-04-01T12:13:50.347Z,3.40
2018-04-01T12:16:16.678Z,3.73
2018-04-01T12:18:43.678Z,4.70
2018-04-01T12:21:09.885Z,6.20
2018-04-01T12:23:36.842Z,6.63
2018-04-01T12:26:03.134Z,6.50
2018-04-01T12:28:29.338Z,4.50
2018-04-01T12:30:55.572Z,3.53
2018-04-01T12:33:21.812Z,3.83
2018-04-01T12:35:48.061Z,4.17
2018-04-01T12:38:14.453Z,2.97
2018-04-01T12:40:40.715Z,4.33
2018-04-01T12:43:07.673Z,4.27
2018-04-01T12:45:33.901Z,3.87
2018-04-01T12:48:00.895Z,4.00
2018-04-01T12:50:27.140Z,4.67
2018-04-01T12:52:53.372Z,4.30
2018-04-01T12:55:19.715Z,4.67
2018-04-01T12:57:46.019Z,4.07
2018-04-01T13:00:12.264Z,4.53
2018-04-01T13:02:38.591Z,4.20
2018-04-01T13:05:04.877Z,5.53
2018-04-01T13:07:31.093Z,10.73
2018-04-01T13:09:57.336Z,4.67
2018-04-01T13:12:23.564Z,4.37
2018-04-01T13:14:49.784Z,5.17
2018-04-01T13:17:16.028Z,4.80
2018-04-01T13:19:42.252Z,4.43
2018-04-01T13:22:08.490Z,3.83
2018-04-01T13:24:34.735Z,4.03
2018-04-01T13:27:00.951Z,3.97
2018-04-01T13:29:27.206Z,3.80
2018-04-01T13:31:53.450Z,3.70
2018-04-01T13:34:19.668Z,4.30
2018-04-01T13:36:46.088Z,3.87
2018-04-01T13:39:13.110Z,4.80
2018-04-01T13:41:39.332Z,6.40
2018-04-01T13:44:05.547Z,5.70
2018-04-01T13:46:31.848Z,6.90
2018-04-01T13:48:58.863Z,6.83
2018-04-01T13:51:25.068Z,7.53
2018-04-01T13:53:51.317Z,7.50
2018-04-01T13:56:17.610Z,7.87
2018-04-01T13:58:43.841Z,8.67
2018-04-01T14:01:10.167Z,7.20
2018-04-01T14:03:36.566Z,7.77
2018-04-01T14:06:02.887Z,7.47
2018-04-01T14:08:29.164Z,8.00
2018-04-01T14:10:55.388Z,7.20
2018-04-01T14:13:21.604Z,6.37
2018-04-01T14:15:47.840Z,7.43
2018-04-01T14:18:14.936Z,7.90
2018-04-01T14:20:41.186Z,7.73
2018-04-01T14:23:08.337Z,6.87
2018-04-01T14:25:35.387Z,6.90
2018-04-01T14:28:01.644Z,6.23
2018-04-01T14:30:27.912Z,7.77
2018-04-01T14:32:54.124Z,5.93
2018-04-01T14:35:21.255Z,7.20
2018-04-01T14:37:47.496Z,10.30
2018-04-01T14:40:13.874Z,5.57
2018-04-01T14:42:40.093Z,8.80
2018-04-01T14:45:06.341Z,5.30
2018-04-01T14:47:33.376Z,6.90
2018-04-01T14:49:59.768Z,5.50
2018-04-01T14:52:26.036Z,4.93
2018-04-01T14:54:52.240Z,5.67
2018-04-01T14:57:18.465Z,7.00
2018-04-01T14:59:44.761Z,5.97
2018-04-01T15:02:11.021Z,7.33
2018-04-01T15:04:37.263Z,6.57
2018-04-01T15:07:03.509Z,5.87
2018-04-01T15:09:29.746Z,6.40
2018-04-01T15:11:56.882Z,8.07
2018-04-01T15:14:23.168Z,6.90
2018-04-01T15:16:49.532Z,7.00
2018-04-01T15:19:15.785Z,7.63
2018-04-01T15:21:42.107Z,9.10
2018-04-01T15:24:08.425Z,7.80
2018-04-01T15:26:34.648Z,7.77
2018-04-01T15:29:00.914Z,7.20
2018-04-01T15:31:28.029Z,6.43
2018-04-01T15:33:54.282Z,7.90
2018-04-01T15:36:21.278Z,6.67
2018-04-01T15:38:47.507Z,9.03
2018-04-01T15:41:13.780Z,7.43
2018-04-01T15:43:40.795Z,7.50
2018-04-01T15:46:07.137Z,6.50
2018-04-01T15:48:33.358Z,5.30
2018-04-01T15:50:59.592Z,5.13
2018-04-01T15:53:25.829Z,8.13
2018-04-01T15:55:52.050Z,5.10
2018-04-01T15:58:18.313Z,5.73
2018-04-01T16:00:45.256Z,5.80
2018-04-01T16:03:11.482Z,6.83
2018-04-01T16:05:38.517Z,6.80
2018-04-01T16:08:04.732Z,7.30
2018-04-01T16:10:30.986Z,7.57
2018-04-01T16:12:57.999Z,9.50
2018-04-01T16:15:24.286Z,9.73
2018-04-01T16:17:50.654Z,8.60
2018-04-01T16:20:16.946Z,11.73
2018-04-01T16:22:43.158Z,10.00
2018-04-01T16:25:10.146Z,8.50
2018-04-01T16:27:36.438Z,9.90
2018-04-01T16:30:02.829Z,9.17
2018-04-01T16:32:29.090Z,8.93
2018-04-01T16:34:55.401Z,10.83
2018-04-01T16:37:21.697Z,10.20
2018-04-01T16:39:47.931Z,10.90
2018-04-01T16:42:14.204Z,9.83
2018-04-01T16:44:41.211Z,10.77
2018-04-01T16:47:07.440Z,10.70
2018-04-01T16:49:33.672Z,11.97
2018-04-01T16:51:59.947Z,12.03
2018-04-01T16:54:26.463Z,12.97
2018-04-01T16:56:53.481Z,11.63
2018-04-01T16:59:19.812Z,11.17
2018-04-01T17:01:46.051Z,11.93
2018-04-01T17:04:12.298Z,11.50
2018-04-01T17:06:39.266Z,14.20
2018-04-01T17:09:06.388Z,11.93
2018-04-01T17:11:32.824Z,15.43
2018-04-01T17:13:59.838Z,12.93
2018-04-01T17:16:26.085Z,15.07
2018-04-01T17:18:52.635Z,15.80
2018-04-01T17:21:18.887Z,16.90
2018-04-01T17:23:45.993Z,13.47
2018-04-01T17:26:13.067Z,14.07
2018-04-01T17:28:39.331Z,14.33
2018-04-01T17:31:05.587Z,13.53
2018-04-01T17:33:31.912Z,16.53
2018-04-01T17:35:58.156Z,16.00
2018-04-01T17:38:24.398Z,15.33
2018-04-01T17:40:50.839Z,14.87
2018-04-01T17:43:17.824Z,16.40
2018-04-01T17:45:44.047Z,15.60
2018-04-01T17:48:10.429Z,15.10
2018-04-01T17:50:36.868Z,17.10
2018-04-01T17:53:03.094Z,15.27
2018-04-01T17:55:29.374Z,21.90
2018-04-01T17:57:55.616Z,16.67
2018-04-01T18:00:21.894Z,17.33
2018-04-01T18:02:48.142Z,15.90
2018-04-01T18:05:15.148Z,17.53
2018-04-01T18:07:41.395Z,18.40
2018-04-01T18:10:07.675Z,18.20
2018-04-01T18:12:37.040Z,24.60
2018-04-01T18:15:04.050Z,19.17
2018-04-01T18:17:30.319Z,18.33
2018-04-01T18:19:57.298Z,21.40
2018-04-01T18:22:23.572Z,19.10
2018-04-01T18:24:49.816Z,18.10
2018-04-01T18:27:16.836Z,16.67
2018-04-01T18:29:43.087Z,16.87
2018-04-01T18:32:09.487Z,29.10
2018-04-01T18:34:36.541Z,20.10
2018-04-01T18:37:02.782Z,18.50
2018-04-01T18:39:29.044Z,21.50
2018-04-01T18:41:56.032Z,18.10
2018-04-01T18:44:22.243Z,22.30
2018-04-01T18:46:48.507Z,21.93
2018-04-01T18:49:14.748Z,21.40
2018-04-01T18:51:41.118Z,19.73
2018-04-01T18:54:07.360Z,21.47
2018-04-01T18:56:33.600Z,21.17
2018-04-01T18:59:00.182Z,20.37
2018-04-01T19:01:26.483Z,19.63
2018-04-01T19:03:52.835Z,21.33
2018-04-01T19:06:19.067Z,19.10
2018-04-01T19:08:45.318Z,19.63
2018-04-01T19:11:12.444Z,20.90
2018-04-01T19:13:39.443Z,19.27
2018-04-01T19:16:05.915Z,22.87
2018-04-01T19:18:33.118Z,24.80
2018-04-01T19:20:59.568Z,23.67
2018-04-01T19:23:26.075Z,28.23
2018-04-01T19:25:52.498Z,25.03
2018-04-01T19:28:19.638Z,31.07
2018-04-01T19:30:46.887Z,25.27
2018-04-01T19:33:14.132Z,24.40
2018-04-01T19:35:42.011Z,21.77
2018-04-01T19:38:09.262Z,22.40
2018-04-01T19:40:35.700Z,19.20
2018-04-01T19:43:02.852Z,23.00
2018-04-01T19:45:29.340Z,22.57
2018-04-01T19:47:55.785Z,18.80
2018-04-01T19:50:22.201Z,18.90
2018-04-01T19:52:48.701Z,16.70
2018-04-01T19:55:15.108Z,22.93
2018-04-01T19:57:42.316Z,20.70
2018-04-01T20:00:08.777Z,21.70
2018-04-01T20:02:35.198Z,20.63
2018-04-01T20:05:01.688Z,17.20
2018-04-01T20:07:28.172Z,19.97
2018-04-01T20:09:54.706Z,16.73
2018-04-01T20:12:21.176Z,20.57
2018-04-01T20:14:48.482Z,20.37
2018-04-01T20:17:15.011Z,19.90
2018-04-01T20:19:41.555Z,17.33
2018-04-01T20:22:08.102Z,19.97
2018-04-01T20:24:35.472Z,22.07
2018-04-01T20:27:02.647Z,20.17
2018-04-01T20:29:29.977Z,17.50
2018-04-01T20:31:57.166Z,19.67
2018-04-01T20:34:23.680Z,20.87
2018-04-01T20:36:50.888Z,21.23
2018-04-01T20:39:17.354Z,18.50
2018-04-01T20:41:45.402Z,21.20
2018-04-01T20:44:11.866Z,18.07
2018-04-01T20:46:39.101Z,21.77
2018-04-01T20:49:05.512Z,22.70
2018-04-01T20:51:31.991Z,19.80
2018-04-01T20:53:58.519Z,23.77
2018-04-01T20:56:24.983Z,21.23
2018-04-01T20:58:51.481Z,22.77
2018-04-01T21:01:18.820Z,21.40
2018-04-01T21:03:45.999Z,22.40
2018-04-01T21:06:12.460Z,23.90
2018-04-01T21:08:38.912Z,21.33
2018-04-01T21:11:05.338Z,23.17
2018-04-01T21:13:31.838Z,22.00
2018-04-01T21:15:59.027Z,24.37
2018-04-01T21:18:25.458Z,20.90
2018-04-01T21:20:51.952Z,18.63
2018-04-01T21:23:18.463Z,25.63
2018-04-01T21:25:44.877Z,24.03
2018-04-01T21:28:11.432Z,23.93
2018-04-01T21:30:37.888Z,25.07
2018-04-01T21:33:11.359Z,23.30
2018-04-01T21:35:37.881Z,25.50
2018-04-01T21:38:04.537Z,23.43
2018-04-01T21:40:31.176Z,23.40
2018-04-01T21:42:57.686Z,26.73
2018-04-01T21:45:24.140Z,26.33
2018-04-01T21:47:52.072Z,25.73
2018-04-01T21:50:18.478Z,22.03
2018-04-01T21:52:44.924Z,27.50
2018-04-01T21:55:11.544Z,26.57
2018-04-01T21:57:45.591Z,25.60
2018-04-01T22:00:12.063Z,27.03
2018-04-01T22:02:38.551Z,29.83
2018-04-01T22:05:04.988Z,29.87
2018-04-01T22:07:31.433Z,29.07
2018-04-01T22:09:57.853Z,27.53
2018-04-01T22:12:24.283Z,32.50
2018-04-01T22:14:50.789Z,34.03
2018-04-01T22:17:17.965Z,33.83
2018-04-01T22:19:44.525Z,29.70
2018-04-01T22:22:10.965Z,32.87
2018-04-01T22:24:38.160Z,32.73
2018-04-01T22:27:05.295Z,41.17
2018-04-01T22:29:32.476Z,30.40
2018-04-01T22:31:59.012Z,29.20
2018-04-01T22:34:25.531Z,28.90
2018-04-01T22:36:51.978Z,33.43
2018-04-01T22:39:18.402Z,34.07
2018-04-01T22:41:44.799Z,34.87
2018-04-01T22:44:12.794Z,32.70
2018-04-01T22:46:39.407Z,38.77
2018-04-01T22:49:05.945Z,32.80
2018-04-01T22:51:32.392Z,37.33
2018-04-01T22:53:59.561Z,36.37
2018-04-01T22:56:26.035Z,36.97
2018-04-01T22:58:52.458Z,35.27
2018-04-01T23:01:18.926Z,47.20
2018-04-01T23:03:45.440Z,32.50
2018-04-01T23:06:11.936Z,38.57
2018-04-01T23:08:38.356Z,42.90
2018-04-01T23:11:04.822Z,39.63
2018-04-01T23:13:31.296Z,41.93
2018-04-01T23:15:57.704Z,43.23
2018-04-01T23:18:24.114Z,40.47
2018-04-01T23:20:50.545Z,42.67
2018-04-01T23:23:16.974Z,36.93
2018-04-01T23:25:43.550Z,40.80
2018-04-01T23:28:09.983Z,41.03
2018-04-01T23:30:36.406Z,48.37
2018-04-01T23:33:02.837Z,45.87
2018-04-01T23:35:29.296Z,40.70
2018-04-01T23:37:56.469Z,45.57
2018-04-01T23:40:23.639Z,50.10
2018-04-01T23:42:50.082Z,39.57
2018-04-01T23:45:16.535Z,48.00
2018-04-01T23:47:43.047Z,48.73
2018-04-01T23:50:09.639Z,44.20
2018-04-01T23:52:36.044Z,42.60
2018-04-01T23:55:02.606Z,44.83
2018-04-01T23:57:29.846Z,43.37
2018-04-01T23:59:56.392Z,38.90
